createdAt,value
2023-03-20T00:00:35.730Z,16.73
2023-03-20T00:03:03.743Z,16.40
2023-03-20T00:05:32.389Z,17.43
2023-03-20T00:08:00.284Z,17.30
2023-03-20T00:10:34.094Z,18.60
2023-03-20T00:13:04.846Z,18.80
2023-03-20T00:15:36.481Z,19.63
2023-03-20T00:18:06.479Z,18.20
2023-03-20T00:20:34.353Z,18.23
2023-03-20T00:23:02.694Z,19.63
2023-03-20T00:25:30.374Z,17.60
2023-03-20T00:27:58.025Z,18.07
2023-03-20T00:30:35.920Z,18.03
2023-03-20T00:33:03.621Z,17.17
2023-03-20T00:35:32.334Z,17.57
2023-03-20T00:38:00.200Z,17.00
2023-03-20T00:40:31.719Z,17.47
2023-03-20T00:43:01.945Z,17.00
2023-03-20T00:45:32.876Z,16.67
2023-03-20T00:48:01.819Z,16.40
2023-03-20T00:50:31.527Z,16.93
2023-03-20T00:53:00.584Z,18.37
2023-03-20T00:55:30.682Z,17.70
2023-03-20T00:58:00.259Z,17.53
2023-03-20T01:00:41.750Z,17.47
2023-03-20T01:03:16.949Z,17.40
2023-03-20T01:05:45.422Z,18.07
2023-03-20T01:08:15.444Z,17.80
2023-03-20T01:10:45.193Z,18.87
2023-03-20T01:13:21.873Z,17.60
2023-03-20T01:15:52.506Z,18.40
2023-03-20T01:18:21.978Z,18.10
2023-03-20T01:20:50.785Z,18.30
2023-03-20T01:23:18.465Z,18.67
2023-03-20T01:25:46.415Z,18.00
2023-03-20T01:28:16.569Z,18.00
2023-03-20T01:30:44.238Z,17.77
2023-03-20T01:33:18.634Z,18.00
2023-03-20T01:35:48.001Z,18.27
2023-03-20T01:38:20.299Z,17.37
2023-03-20T01:40:57.101Z,18.50
2023-03-20T01:43:26.212Z,17.70
2023-03-20T01:46:02.229Z,18.80
2023-03-20T01:48:57.089Z,17.13
2023-03-20T01:51:26.927Z,17.23
2023-03-20T01:54:03.134Z,18.50
2023-03-20T01:56:33.885Z,17.60
2023-03-20T01:59:11.159Z,18.57
2023-03-20T02:01:40.085Z,18.13
2023-03-20T02:04:09.873Z,18.60
2023-03-20T02:06:40.213Z,18.40
2023-03-20T02:09:08.266Z,17.90
2023-03-20T02:11:38.700Z,18.20
2023-03-20T02:14:06.716Z,18.97
2023-03-20T02:16:34.364Z,18.37
2023-03-20T02:19:02.898Z,18.23
2023-03-20T02:22:17.906Z,19.23
2023-03-20T02:25:25.110Z,18.10
2023-03-20T02:28:14.030Z,19.93
2023-03-20T02:31:01.178Z,18.90
2023-03-20T02:33:53.325Z,19.20
2023-03-20T02:37:12.359Z,19.40
2023-03-20T02:40:12.663Z,19.73
2023-03-20T02:42:47.912Z,20.03
2023-03-20T02:45:21.045Z,19.87
2023-03-20T02:47:54.681Z,19.10
2023-03-20T02:50:34.667Z,20.07
2023-03-20T02:53:16.827Z,19.80
2023-03-20T02:55:52.333Z,19.40
2023-03-20T02:58:26.636Z,20.20
2023-03-20T03:01:01.374Z,19.40
2023-03-20T03:03:35.225Z,20.13
2023-03-20T03:06:10.454Z,21.20
2023-03-20T03:08:44.248Z,20.80
2023-03-20T03:11:13.849Z,19.90
2023-03-20T03:13:46.020Z,21.33
2023-03-20T03:16:18.553Z,20.27
2023-03-20T03:18:47.692Z,20.60
2023-03-20T03:21:18.324Z,20.13
2023-03-20T03:23:48.723Z,21.60
2023-03-20T03:26:22.291Z,19.87
2023-03-20T03:28:53.704Z,19.90
2023-03-20T03:31:23.020Z,20.27
2023-03-20T03:33:52.907Z,19.40
2023-03-20T03:36:30.511Z,21.13
2023-03-20T03:39:03.769Z,20.90
2023-03-20T03:41:38.534Z,19.70
2023-03-20T03:44:12.382Z,19.60
2023-03-20T03:46:45.159Z,19.50
2023-03-20T03:49:17.837Z,19.90
2023-03-20T03:51:49.347Z,20.53
2023-03-20T03:54:21.660Z,21.60
2023-03-20T03:56:53.027Z,20.23
2023-03-20T03:59:25.964Z,21.70
2023-03-20T04:01:55.380Z,21.73
2023-03-20T04:04:24.800Z,22.90
2023-03-20T04:06:53.072Z,23.50
2023-03-20T04:09:20.779Z,25.50
2023-03-20T04:11:53.385Z,26.73
2023-03-20T04:14:21.834Z,27.40
2023-03-20T04:16:49.431Z,29.47
2023-03-20T04:19:17.198Z,29.00
2023-03-20T04:21:45.665Z,28.80
2023-03-20T04:24:13.498Z,29.23
2023-03-20T04:26:41.185Z,32.07
2023-03-20T04:29:10.433Z,29.40
2023-03-20T04:31:38.128Z,29.00
2023-03-20T04:34:06.163Z,29.93
2023-03-20T04:36:33.803Z,29.53
2023-03-20T04:39:01.531Z,27.03
2023-03-20T04:41:29.466Z,27.60
2023-03-20T04:43:57.135Z,26.00
2023-03-20T04:46:26.428Z,28.43
2023-03-20T04:48:54.077Z,26.67
2023-03-20T04:51:21.643Z,27.13
2023-03-20T04:53:49.300Z,27.67
2023-03-20T04:56:16.922Z,28.30
2023-03-20T04:58:44.662Z,28.00
2023-03-20T05:01:12.366Z,28.97
2023-03-20T05:03:41.448Z,28.07
2023-03-20T05:06:10.008Z,28.07
2023-03-20T05:08:37.774Z,28.13
2023-03-20T05:11:05.936Z,27.90
2023-03-20T05:13:33.506Z,28.50
2023-03-20T05:16:01.241Z,28.37
2023-03-20T05:18:28.857Z,27.90
2023-03-20T05:20:57.844Z,29.23
2023-03-20T05:23:25.500Z,29.27
2023-03-20T05:25:53.119Z,27.77
2023-03-20T05:28:20.723Z,27.60
2023-03-20T05:30:48.437Z,28.63
2023-03-20T05:33:16.270Z,27.57
2023-03-20T05:35:44.672Z,29.07
2023-03-20T05:38:13.677Z,29.63
2023-03-20T05:40:41.893Z,29.37
2023-03-20T05:43:09.835Z,31.20
2023-03-20T05:45:37.814Z,30.73
2023-03-20T05:48:06.158Z,31.57
2023-03-20T05:50:33.931Z,30.50
2023-03-20T05:53:01.852Z,31.60
2023-03-20T05:55:31.018Z,31.40
2023-03-20T05:57:58.670Z,31.47
2023-03-20T06:00:27.065Z,30.70
2023-03-20T06:02:54.829Z,30.50
2023-03-20T06:05:23.296Z,31.30
2023-03-20T06:07:50.977Z,33.00
2023-03-20T06:10:20.015Z,33.17
2023-03-20T06:12:49.129Z,33.27
2023-03-20T06:15:16.874Z,31.23
2023-03-20T06:17:44.686Z,31.30
2023-03-20T06:20:13.205Z,33.03
2023-03-20T06:22:41.383Z,31.40
2023-03-20T06:25:10.250Z,33.87
2023-03-20T06:27:37.866Z,33.53
2023-03-20T06:30:08.097Z,31.90
2023-03-20T06:32:35.909Z,32.53
2023-03-20T06:35:05.807Z,32.50
2023-03-20T06:37:33.746Z,31.83
2023-03-20T06:40:01.536Z,31.53
2023-03-20T06:42:29.156Z,32.57
2023-03-20T06:44:56.948Z,30.40
2023-03-20T06:47:27.085Z,31.77
2023-03-20T06:49:54.732Z,32.33
2023-03-20T06:52:22.699Z,31.90
2023-03-20T06:54:51.339Z,30.90
2023-03-20T06:57:21.147Z,33.07
2023-03-20T06:59:48.836Z,31.40
2023-03-20T07:02:17.110Z,31.53
2023-03-20T07:04:46.814Z,31.50
2023-03-20T07:07:14.829Z,31.90
2023-03-20T07:09:42.563Z,30.83
2023-03-20T07:12:14.758Z,30.30
2023-03-20T07:14:42.801Z,30.37
2023-03-20T07:17:11.066Z,29.77
2023-03-20T07:19:39.249Z,29.03
2023-03-20T07:22:16.113Z,30.90
2023-03-20T07:24:46.670Z,30.80
2023-03-20T07:27:15.069Z,29.63
2023-03-20T07:29:42.866Z,29.70
2023-03-20T07:32:11.479Z,29.83
2023-03-20T07:34:39.209Z,29.70
2023-03-20T07:37:08.449Z,31.70
2023-03-20T07:39:36.268Z,31.40
2023-03-20T07:42:03.885Z,30.63
2023-03-20T07:44:31.614Z,32.30
2023-03-20T07:46:59.198Z,31.17
2023-03-20T07:49:27.249Z,32.40
2023-03-20T07:51:56.907Z,31.57
2023-03-20T07:54:26.273Z,32.03
2023-03-20T07:56:53.922Z,32.33
2023-03-20T07:59:21.487Z,34.37
2023-03-20T08:01:49.118Z,34.17
2023-03-20T08:04:19.515Z,33.43
2023-03-20T08:06:47.427Z,34.30
2023-03-20T08:09:15.113Z,30.97
2023-03-20T08:11:44.257Z,34.27
2023-03-20T08:14:11.942Z,32.23
2023-03-20T08:16:39.777Z,33.27
2023-03-20T08:19:07.494Z,33.43
2023-03-20T08:21:35.261Z,32.60
2023-03-20T08:24:02.880Z,33.80
2023-03-20T08:26:31.117Z,32.07
2023-03-20T08:29:00.244Z,33.20
2023-03-20T08:31:27.983Z,33.17
2023-03-20T08:33:57.328Z,31.87
2023-03-20T08:36:25.226Z,33.30
2023-03-20T08:38:52.872Z,32.40
2023-03-20T08:41:20.794Z,31.87
2023-03-20T08:43:48.632Z,32.93
2023-03-20T08:46:18.683Z,32.77
2023-03-20T08:48:46.385Z,32.70
2023-03-20T08:51:14.020Z,34.10
2023-03-20T08:53:41.777Z,33.30
2023-03-20T08:56:10.816Z,33.97
2023-03-20T08:58:38.455Z,32.63
2023-03-20T09:01:07.832Z,33.97
2023-03-20T09:03:37.271Z,32.43
2023-03-20T09:06:07.583Z,33.43
2023-03-20T09:08:35.373Z,32.40
2023-03-20T09:11:03.208Z,33.87
2023-03-20T09:13:30.808Z,34.03
2023-03-20T09:15:58.638Z,31.30
2023-03-20T09:18:26.485Z,33.73
2023-03-20T09:20:56.478Z,33.23
2023-03-20T09:23:24.177Z,33.40
2023-03-20T09:25:52.003Z,34.20
2023-03-20T09:28:19.720Z,32.27
2023-03-20T09:30:47.485Z,32.07
2023-03-20T09:33:15.679Z,32.80
2023-03-20T09:35:43.895Z,32.10
2023-03-20T09:38:13.695Z,31.97
2023-03-20T09:40:52.549Z,32.10
2023-03-20T09:43:29.906Z,30.10
2023-03-20T09:46:08.418Z,32.37
2023-03-20T09:48:42.931Z,30.50
2023-03-20T09:51:22.242Z,30.50
2023-03-20T09:53:58.662Z,30.57
2023-03-20T09:56:30.520Z,32.03
2023-03-20T09:59:00.702Z,31.23
2023-03-20T10:01:33.886Z,31.53
2023-03-20T10:04:05.546Z,31.33
2023-03-20T10:06:34.560Z,32.73
2023-03-20T10:09:07.904Z,31.90
2023-03-20T10:11:55.216Z,31.40
2023-03-20T10:14:27.714Z,32.30
2023-03-20T10:17:09.166Z,32.03
2023-03-20T10:19:44.462Z,32.90
2023-03-20T10:22:22.233Z,32.60
2023-03-20T10:24:58.441Z,32.73
2023-03-20T10:27:30.408Z,31.47
2023-03-20T10:30:14.447Z,32.47
2023-03-20T10:32:49.281Z,35.10
2023-03-20T10:35:24.712Z,34.03
2023-03-20T10:38:14.012Z,33.17
2023-03-20T10:40:44.388Z,33.40
2023-03-20T10:43:18.549Z,32.83
2023-03-20T10:45:49.984Z,33.40
2023-03-20T10:48:26.138Z,34.17
2023-03-20T10:50:57.108Z,33.00
2023-03-20T10:53:30.189Z,34.97
2023-03-20T10:56:03.407Z,33.67
2023-03-20T10:58:35.101Z,35.23
2023-03-20T11:01:03.551Z,34.83
2023-03-20T11:03:36.226Z,35.03
2023-03-20T11:06:10.358Z,34.53
2023-03-20T11:08:41.859Z,33.87
2023-03-20T11:11:11.550Z,35.70
2023-03-20T11:13:42.559Z,34.50
2023-03-20T11:16:21.793Z,35.40
2023-03-20T11:18:50.714Z,36.10
2023-03-20T11:21:22.647Z,35.27
2023-03-20T11:23:51.336Z,35.57
2023-03-20T11:26:29.016Z,35.70
2023-03-20T11:28:58.665Z,35.50
2023-03-20T11:31:32.507Z,37.40
2023-03-20T11:34:12.961Z,37.00
2023-03-20T11:36:41.319Z,36.80
2023-03-20T11:39:14.951Z,36.67
2023-03-20T11:41:48.782Z,37.20
2023-03-20T11:44:24.759Z,37.47
2023-03-20T11:46:57.774Z,38.37
2023-03-20T11:49:27.684Z,37.10
2023-03-20T11:52:00.708Z,37.73
2023-03-20T11:54:28.752Z,38.03
2023-03-20T11:56:59.573Z,37.37
2023-03-20T11:59:32.964Z,35.30
2023-03-20T12:02:02.872Z,35.17
2023-03-20T12:04:33.851Z,38.47
2023-03-20T12:07:11.103Z,37.70
2023-03-20T12:09:43.848Z,36.80
2023-03-20T12:12:32.475Z,37.30
2023-03-20T12:15:09.379Z,38.20
2023-03-20T12:17:45.306Z,38.07
2023-03-20T12:20:25.131Z,37.70
2023-03-20T12:22:59.110Z,37.70
2023-03-20T12:25:29.807Z,38.20
2023-03-20T12:28:06.255Z,36.50
2023-03-20T12:30:50.902Z,37.20
2023-03-20T12:33:27.911Z,38.50
2023-03-20T12:35:57.976Z,36.77
2023-03-20T12:38:29.195Z,35.00
2023-03-20T12:41:07.288Z,37.70
2023-03-20T12:43:50.498Z,36.67
2023-03-20T12:46:27.114Z,35.97
2023-03-20T12:49:08.578Z,34.90
2023-03-20T12:51:47.885Z,34.83
2023-03-20T12:54:28.884Z,34.60
2023-03-20T12:57:08.265Z,35.83
2023-03-20T12:59:50.092Z,36.10
2023-03-20T13:02:38.618Z,33.90
2023-03-20T13:05:18.132Z,34.00
2023-03-20T13:08:00.126Z,35.37
2023-03-20T13:10:33.632Z,35.33
2023-03-20T13:13:13.091Z,35.87
2023-03-20T13:15:59.212Z,33.20
2023-03-20T13:18:41.429Z,33.80
2023-03-20T13:21:14.645Z,35.07
2023-03-20T13:23:47.309Z,34.10
2023-03-20T13:26:30.635Z,34.00
2023-03-20T13:29:06.148Z,32.77
2023-03-20T13:31:47.045Z,32.50
2023-03-20T13:34:25.898Z,33.47
2023-03-20T13:37:22.304Z,33.93
2023-03-20T13:40:04.498Z,34.43
2023-03-20T13:42:37.941Z,33.00
2023-03-20T13:45:18.886Z,34.07
2023-03-20T13:47:49.758Z,34.40
2023-03-20T13:50:35.097Z,35.33
2023-03-20T13:53:09.684Z,33.40
2023-03-20T13:55:46.971Z,32.53
2023-03-20T13:58:31.603Z,33.57
2023-03-20T14:01:07.002Z,35.00
2023-03-20T14:03:38.617Z,34.77
2023-03-20T14:06:19.007Z,35.00
2023-03-20T14:08:49.895Z,34.53
2023-03-20T14:11:35.909Z,33.30
2023-03-20T14:14:14.449Z,33.10
2023-03-20T14:16:43.410Z,30.63
2023-03-20T14:19:19.203Z,33.17
2023-03-20T14:21:47.997Z,31.00
2023-03-20T14:24:18.589Z,29.40
2023-03-20T14:26:50.241Z,30.80
2023-03-20T14:29:32.673Z,31.57
2023-03-20T14:32:19.365Z,30.80
2023-03-20T14:34:49.855Z,30.60
2023-03-20T14:37:36.567Z,30.60
2023-03-20T14:40:15.367Z,30.43
2023-03-20T14:42:52.165Z,30.70
2023-03-20T14:45:41.985Z,30.20
2023-03-20T14:48:31.520Z,28.93
2023-03-20T14:51:12.900Z,28.77
2023-03-20T14:53:41.716Z,28.10
2023-03-20T14:56:12.481Z,30.83
2023-03-20T14:58:54.317Z,30.10
2023-03-20T15:01:29.672Z,29.87
2023-03-20T15:04:01.613Z,30.67
2023-03-20T15:06:45.256Z,30.30
2023-03-20T15:09:13.433Z,30.67
2023-03-20T15:11:43.471Z,29.27
2023-03-20T15:14:17.463Z,30.17
2023-03-20T15:16:46.817Z,29.10
2023-03-20T15:19:19.133Z,30.10
2023-03-20T15:21:49.747Z,29.97
2023-03-20T15:24:21.281Z,31.13
2023-03-20T15:26:53.940Z,29.90
2023-03-20T15:29:22.547Z,27.57
2023-03-20T15:32:12.351Z,30.53
2023-03-20T15:34:43.121Z,29.83
2023-03-20T15:37:16.193Z,28.23
2023-03-20T15:39:45.671Z,27.90
2023-03-20T15:42:15.202Z,28.30
2023-03-20T15:44:45.719Z,27.77
2023-03-20T15:47:20.533Z,29.00
2023-03-20T15:49:52.086Z,27.43
2023-03-20T15:52:27.736Z,27.30
2023-03-20T15:54:56.651Z,26.90
2023-03-20T15:57:30.950Z,26.70
2023-03-20T15:59:59.313Z,28.03
2023-03-20T16:02:27.892Z,28.73
2023-03-20T16:04:56.323Z,28.70
2023-03-20T16:07:29.847Z,27.83
2023-03-20T16:09:57.810Z,27.03
2023-03-20T16:12:26.936Z,26.90
2023-03-20T16:14:55.270Z,27.80
2023-03-20T16:17:25.349Z,26.70
2023-03-20T16:19:53.031Z,25.80
2023-03-20T16:22:25.029Z,25.43
2023-03-20T16:24:58.228Z,25.60
2023-03-20T16:27:29.828Z,25.07
2023-03-20T16:29:58.003Z,23.80
2023-03-20T16:32:34.072Z,24.10
2023-03-20T16:35:05.774Z,24.60
2023-03-20T16:37:42.877Z,23.67
2023-03-20T16:40:22.250Z,23.47
2023-03-20T16:42:54.656Z,24.03
2023-03-20T16:45:27.210Z,23.10
2023-03-20T16:48:24.720Z,24.80
2023-03-20T16:50:58.245Z,23.37
2023-03-20T16:53:30.817Z,24.60
2023-03-20T16:56:04.739Z,25.07
2023-03-20T16:58:35.085Z,26.30
2023-03-20T17:01:05.962Z,24.80
2023-03-20T17:03:38.024Z,25.33
2023-03-20T17:06:08.469Z,23.70
2023-03-20T17:08:38.884Z,24.20
2023-03-20T17:11:12.655Z,24.40
2023-03-20T17:13:41.223Z,23.73
2023-03-20T17:16:15.292Z,24.83
2023-03-20T17:18:43.006Z,24.07
2023-03-20T17:21:11.344Z,26.30
2023-03-20T17:23:39.087Z,26.23
2023-03-20T17:26:12.640Z,24.80
2023-03-20T17:28:41.686Z,26.63
2023-03-20T17:31:14.172Z,25.57
2023-03-20T17:33:42.122Z,25.27
2023-03-20T17:36:17.005Z,25.93
2023-03-20T17:38:44.925Z,25.57
2023-03-20T17:41:16.045Z,26.70
2023-03-20T17:43:43.841Z,26.67
2023-03-20T17:46:18.855Z,25.73
2023-03-20T17:48:46.782Z,25.13
2023-03-20T17:51:14.544Z,26.80
2023-03-20T17:53:42.733Z,25.30
2023-03-20T17:56:14.736Z,25.47
2023-03-20T17:58:44.628Z,26.27
2023-03-20T18:01:12.738Z,26.00
2023-03-20T18:03:40.961Z,25.77
2023-03-20T18:06:09.185Z,26.27
2023-03-20T18:08:38.851Z,25.30
2023-03-20T18:11:07.004Z,25.30
2023-03-20T18:13:36.135Z,25.73
2023-03-20T18:16:03.799Z,26.00
2023-03-20T18:18:31.389Z,26.27
2023-03-20T18:20:59.346Z,24.73
2023-03-20T18:23:26.946Z,24.50
2023-03-20T18:25:54.725Z,24.40
2023-03-20T18:28:23.184Z,24.87
2023-03-20T18:30:52.553Z,25.50
2023-03-20T18:33:25.039Z,24.90
2023-03-20T18:35:52.734Z,26.50
2023-03-20T18:38:20.580Z,25.53
2023-03-20T18:40:48.236Z,24.90
2023-03-20T18:43:16.232Z,24.73
2023-03-20T18:45:44.530Z,24.27
2023-03-20T18:48:13.625Z,24.43
2023-03-20T18:50:43.224Z,24.50
2023-03-20T18:53:11.935Z,23.13
2023-03-20T18:55:39.555Z,24.60
2023-03-20T18:58:08.992Z,23.07
2023-03-20T19:00:40.093Z,24.67
2023-03-20T19:03:09.853Z,24.57
2023-03-20T19:05:39.273Z,24.00
2023-03-20T19:08:07.272Z,26.10
2023-03-20T19:10:37.740Z,24.47
2023-03-20T19:13:07.475Z,25.10
2023-03-20T19:15:37.208Z,24.67
2023-03-20T19:18:07.208Z,23.33
2023-03-20T19:20:36.833Z,24.90
2023-03-20T19:23:08.222Z,25.10
2023-03-20T19:25:36.692Z,24.43
2023-03-20T19:28:06.202Z,25.00
2023-03-20T19:30:36.474Z,25.40
2023-03-20T19:33:06.168Z,25.13
2023-03-20T19:35:58.811Z,25.30
2023-03-20T19:38:25.287Z,25.13
2023-03-20T19:40:54.316Z,23.83
2023-03-20T19:43:22.532Z,24.77
2023-03-20T19:45:56.002Z,26.03
2023-03-20T19:48:27.389Z,25.13
2023-03-20T19:50:57.813Z,26.90
2023-03-20T19:53:29.417Z,25.40
2023-03-20T19:55:57.925Z,26.73
2023-03-20T19:58:25.593Z,26.03
2023-03-20T20:00:58.482Z,27.50
2023-03-20T20:03:28.361Z,29.80
2023-03-20T20:05:56.438Z,31.90
2023-03-20T20:08:41.376Z,31.60
2023-03-20T20:11:14.487Z,30.77
2023-03-20T20:14:04.233Z,31.57
2023-03-20T20:16:31.201Z,29.90
2023-03-20T20:18:59.188Z,28.47
2023-03-20T20:24:16.008Z,27.10
2023-03-20T20:26:54.304Z,31.10
2023-03-20T20:29:24.526Z,29.93
2023-03-20T20:31:52.504Z,31.00
2023-03-20T20:39:55.921Z,32.00
2023-03-20T20:42:25.254Z,30.80
2023-03-20T20:44:52.879Z,30.90
2023-03-20T20:47:21.220Z,30.17
2023-03-20T20:49:49.597Z,29.40
2023-03-20T20:52:17.642Z,28.53
2023-03-20T20:54:45.613Z,30.63
2023-03-20T20:57:14.325Z,29.03
2023-03-20T20:59:43.435Z,29.20
2023-03-20T21:02:12.173Z,29.83
2023-03-20T21:04:40.634Z,31.63
2023-03-20T21:07:11.051Z,29.87
2023-03-20T21:09:39.640Z,30.80
2023-03-20T21:12:08.585Z,29.67
2023-03-20T21:14:36.293Z,29.70
2023-03-20T21:17:06.435Z,28.43
2023-03-20T21:19:35.886Z,31.93
2023-03-20T21:22:04.399Z,29.87
2023-03-20T21:24:34.693Z,30.10
2023-03-20T21:27:04.620Z,30.70
2023-03-20T21:29:32.349Z,30.27
2023-03-20T21:31:59.996Z,30.33
2023-03-20T21:34:29.447Z,33.13
2023-03-20T21:36:58.077Z,32.47
2023-03-20T21:39:28.403Z,33.20
2023-03-20T21:41:56.115Z,32.47
2023-03-20T21:45:01.160Z,32.10
2023-03-20T21:59:22.910Z,31.43
2023-03-20T22:07:32.822Z,32.97
2023-03-20T22:10:35.349Z,35.07
2023-03-20T22:13:09.884Z,34.27
2023-03-20T22:18:50.624Z,35.70
2023-03-20T22:24:21.957Z,36.10
2023-03-20T22:29:51.149Z,33.10
2023-03-20T22:41:11.029Z,35.10
2023-03-20T22:46:32.428Z,37.20
2023-03-20T22:48:49.861Z,36.83
2023-03-20T22:51:18.369Z,38.00
2023-03-20T22:53:47.955Z,33.93
2023-03-20T22:56:16.910Z,36.17
2023-03-20T22:58:44.584Z,35.70
2023-03-20T23:01:12.390Z,35.50
2023-03-20T23:03:42.303Z,36.60
2023-03-20T23:06:16.366Z,36.87
2023-03-20T23:08:50.740Z,37.90
2023-03-20T23:11:23.696Z,34.80
2023-03-20T23:13:51.586Z,34.10
2023-03-20T23:16:19.585Z,33.70
2023-03-20T23:18:47.229Z,33.03
2023-03-20T23:21:14.895Z,32.73
2023-03-20T23:23:42.541Z,31.20
2023-03-20T23:26:12.606Z,30.50
2023-03-20T23:28:43.286Z,30.43
2023-03-20T23:31:15.450Z,29.33
2023-03-20T23:33:45.011Z,28.70
2023-03-20T23:36:25.015Z,27.83
2023-03-20T23:39:00.472Z,28.50
2023-03-20T23:41:53.641Z,29.03
2023-03-20T23:44:17.010Z,28.63
2023-03-20T23:46:47.599Z,30.20
2023-03-20T23:49:15.712Z,29.23
2023-03-20T23:51:43.607Z,28.60
2023-03-20T23:54:11.406Z,28.97
2023-03-20T23:56:39.058Z,29.47
2023-03-20T23:59:18.690Z,29.97
